DAL6048 KATL-KMIA
Flight info
| Callsign | DAL6048 |
|---|---|
| Flight time | 1h 23m |
| Altitude | 32000 |
| Route | BANNG3 LUCKK HONID FROGZ5 |
| Aircraft | A21N/M-SDE2E3FGHIRWXY/LB1 |
Departure
| Time | 2026-05-03 21:53 |
|---|---|
| Airport | Hartsfield Jackson Atlanta International Airport (KATL) |
Arrival
| Time | 2026-05-03 23:16 |
|---|---|
| Airport | Miami International Airport (KMIA) |
| Time | Latitude | Longitude | Altitude | Speed | Heading |
|---|---|---|---|---|---|
| 2026-05-03 20:54 | 33.64264 | -84.43654 | 1012 ft | 0 kts | 90° |
| 2026-05-03 21:39 | 33.64264 | -84.43661 | 1012 ft | 4 kts | 83° |
| 2026-05-03 21:39 | 33.64265 | -84.43692 | 1012 ft | 4 kts | 107° |
| 2026-05-03 21:40 | 33.64278 | -84.43716 | 1012 ft | 4 kts | 152° |
| 2026-05-03 21:40 | 33.64296 | -84.43721 | 1012 ft | 0 kts | 179° |
| 2026-05-03 21:43 | 33.64279 | -84.43721 | 1012 ft | 4 kts | 180° |
| 2026-05-03 21:43 | 33.64257 | -84.43722 | 1012 ft | 5 kts | 180° |
| 2026-05-03 21:43 | 33.64170 | -84.43720 | 1012 ft | 18 kts | 181° |
| 2026-05-03 21:43 | 33.64034 | -84.43721 | 1012 ft | 20 kts | 181° |
| 2026-05-03 21:44 | 33.63933 | -84.43721 | 1012 ft | 10 kts | 180° |
| 2026-05-03 21:44 | 33.63855 | -84.43721 | 1012 ft | 12 kts | 180° |
| 2026-05-03 21:44 | 33.63762 | -84.43720 | 1012 ft | 14 kts | 180° |
| 2026-05-03 21:44 | 33.63671 | -84.43678 | 1012 ft | 16 kts | 107° |
| 2026-05-03 21:45 | 33.63664 | -84.43536 | 1011 ft | 18 kts | 90° |
| 2026-05-03 21:45 | 33.63664 | -84.43381 | 1011 ft | 20 kts | 90° |
| 2026-05-03 21:45 | 33.63664 | -84.43211 | 1011 ft | 21 kts | 90° |
| 2026-05-03 21:45 | 33.63665 | -84.43027 | 1011 ft | 23 kts | 90° |
| 2026-05-03 21:46 | 33.63664 | -84.42830 | 1012 ft | 24 kts | 91° |
| 2026-05-03 21:46 | 33.63655 | -84.42627 | 1012 ft | 25 kts | 89° |
| 2026-05-03 21:46 | 33.63656 | -84.42409 | 1012 ft | 25 kts | 89° |
| 2026-05-03 21:46 | 33.63655 | -84.42203 | 1012 ft | 25 kts | 90° |
| 2026-05-03 21:47 | 33.63655 | -84.41992 | 1012 ft | 23 kts | 90° |
| 2026-05-03 21:47 | 33.63655 | -84.41792 | 1012 ft | 25 kts | 89° |
| 2026-05-03 21:47 | 33.63655 | -84.41581 | 1011 ft | 26 kts | 90° |
| 2026-05-03 21:47 | 33.63655 | -84.41375 | 1011 ft | 23 kts | 90° |
| 2026-05-03 21:48 | 33.63655 | -84.41194 | 1011 ft | 20 kts | 90° |
| 2026-05-03 21:48 | 33.63656 | -84.41097 | 1012 ft | 7 kts | 89° |
| 2026-05-03 21:48 | 33.63656 | -84.41049 | 1012 ft | 7 kts | 89° |
| 2026-05-03 21:48 | 33.63656 | -84.40980 | 1012 ft | 9 kts | 90° |
| 2026-05-03 21:49 | 33.63640 | -84.40921 | 1012 ft | 6 kts | 143° |
| 2026-05-03 21:49 | 33.63596 | -84.40908 | 1012 ft | 5 kts | 178° |
| 2026-05-03 21:49 | 33.63576 | -84.40908 | 1012 ft | 1 kts | 179° |
| 2026-05-03 21:51 | 33.63563 | -84.40908 | 1012 ft | 5 kts | 179° |
| 2026-05-03 21:51 | 33.63516 | -84.40907 | 1012 ft | 8 kts | 179° |
| 2026-05-03 21:51 | 33.63483 | -84.40918 | 1013 ft | 4 kts | 221° |
| 2026-05-03 21:51 | 33.63471 | -84.40960 | 1012 ft | 6 kts | 268° |
| 2026-05-03 21:52 | 33.63471 | -84.40991 | 1012 ft | 0 kts | 270° |
| 2026-05-03 21:52 | 33.63471 | -84.41133 | 1011 ft | 60 kts | 270° |
| 2026-05-03 21:53 | 33.63470 | -84.42061 | 1012 ft | 162 kts | 269° |
| 2026-05-03 21:53 | 33.63479 | -84.43756 | 1304 ft | 233 kts | 271° |
| 2026-05-03 21:53 | 33.63508 | -84.45789 | 2242 ft | 243 kts | 272° |
| 2026-05-03 21:53 | 33.63532 | -84.47816 | 3048 ft | 245 kts | 272° |
| 2026-05-03 21:54 | 33.63531 | -84.49930 | 3803 ft | 260 kts | 270° |
| 2026-05-03 21:54 | 33.63509 | -84.52087 | 4804 ft | 262 kts | 270° |
| 2026-05-03 21:54 | 33.63482 | -84.54280 | 5842 ft | 263 kts | 270° |
| 2026-05-03 21:54 | 33.63466 | -84.56489 | 6810 ft | 266 kts | 271° |
| 2026-05-03 21:55 | 33.63459 | -84.58719 | 7729 ft | 269 kts | 271° |
| 2026-05-03 21:55 | 33.63411 | -84.60970 | 8627 ft | 273 kts | 264° |
| 2026-05-03 21:55 | 33.62802 | -84.63152 | 9520 ft | 280 kts | 242° |
| 2026-05-03 21:55 | 33.61486 | -84.64923 | 10285 ft | 294 kts | 219° |
| 2026-05-03 21:56 | 33.59552 | -84.65952 | 10647 ft | 320 kts | 193° |
| 2026-05-03 21:56 | 33.57283 | -84.65913 | 10980 ft | 344 kts | 169° |
| 2026-05-03 21:56 | 33.54935 | -84.65000 | 11325 ft | 364 kts | 161° |
| 2026-05-03 21:56 | 33.52500 | -84.63925 | 11816 ft | 377 kts | 162° |
| 2026-05-03 21:57 | 33.50009 | -84.62875 | 12568 ft | 381 kts | 163° |
| 2026-05-03 21:57 | 33.47486 | -84.61860 | 13350 ft | 384 kts | 164° |
| 2026-05-03 21:57 | 33.44937 | -84.60862 | 14115 ft | 388 kts | 165° |
| 2026-05-03 21:57 | 33.42356 | -84.59864 | 14815 ft | 391 kts | 165° |
| 2026-05-03 21:58 | 33.39754 | -84.58862 | 15492 ft | 395 kts | 165° |
| 2026-05-03 21:58 | 33.37122 | -84.57848 | 16182 ft | 398 kts | 165° |
| 2026-05-03 21:58 | 33.34497 | -84.56837 | 16869 ft | 402 kts | 165° |
| 2026-05-03 21:58 | 33.31821 | -84.55810 | 17554 ft | 405 kts | 165° |
| 2026-05-03 21:59 | 33.29131 | -84.54778 | 18239 ft | 407 kts | 165° |
| 2026-05-03 21:59 | 33.26424 | -84.53739 | 18834 ft | 411 kts | 165° |
| 2026-05-03 21:59 | 33.23684 | -84.52687 | 19382 ft | 415 kts | 165° |
| 2026-05-03 21:59 | 33.20916 | -84.51624 | 19939 ft | 418 kts | 165° |
| 2026-05-03 22:00 | 33.18127 | -84.50554 | 20486 ft | 421 kts | 165° |
| 2026-05-03 22:00 | 33.15316 | -84.49477 | 21044 ft | 424 kts | 165° |
| 2026-05-03 22:00 | 33.12522 | -84.48409 | 21591 ft | 427 kts | 165° |
| 2026-05-03 22:00 | 33.09679 | -84.47324 | 22094 ft | 431 kts | 166° |
| 2026-05-03 22:01 | 33.06809 | -84.46232 | 22611 ft | 434 kts | 166° |
| 2026-05-03 22:01 | 33.03914 | -84.45130 | 23128 ft | 438 kts | 166° |
| 2026-05-03 22:01 | 33.00996 | -84.44018 | 23644 ft | 441 kts | 166° |
| 2026-05-03 22:01 | 32.98061 | -84.42913 | 24088 ft | 442 kts | 167° |
| 2026-05-03 22:02 | 32.95093 | -84.42186 | 24517 ft | 439 kts | 178° |
| 2026-05-03 22:02 | 32.92042 | -84.42008 | 24957 ft | 439 kts | 183° |
| 2026-05-03 22:02 | 32.88980 | -84.41962 | 25411 ft | 440 kts | 184° |
| 2026-05-03 22:02 | 32.85902 | -84.41923 | 25866 ft | 443 kts | 184° |
| 2026-05-03 22:03 | 32.82853 | -84.41877 | 26311 ft | 445 kts | 184° |
| 2026-05-03 22:03 | 32.79747 | -84.41821 | 26765 ft | 447 kts | 184° |
| 2026-05-03 22:03 | 32.76635 | -84.41760 | 27296 ft | 446 kts | 184° |
| 2026-05-03 22:03 | 32.73549 | -84.41693 | 27964 ft | 442 kts | 185° |
| 2026-05-03 22:04 | 32.70473 | -84.41631 | 28616 ft | 438 kts | 185° |
| 2026-05-03 22:04 | 32.67434 | -84.41572 | 29203 ft | 436 kts | 185° |
| 2026-05-03 22:04 | 32.64411 | -84.41513 | 29779 ft | 433 kts | 185° |
| 2026-05-03 22:04 | 32.61390 | -84.41451 | 30329 ft | 431 kts | 186° |
| 2026-05-03 22:05 | 32.58436 | -84.41391 | 30790 ft | 429 kts | 186° |
| 2026-05-03 22:05 | 32.55461 | -84.41332 | 31236 ft | 426 kts | 186° |
| 2026-05-03 22:05 | 32.52496 | -84.41273 | 31689 ft | 424 kts | 186° |
| 2026-05-03 22:05 | 32.49546 | -84.41215 | 32035 ft | 423 kts | 186° |
| 2026-05-03 22:06 | 32.46603 | -84.41156 | 32154 ft | 420 kts | 187° |
| 2026-05-03 22:06 | 32.43693 | -84.41098 | 32165 ft | 418 kts | 187° |
| 2026-05-03 22:06 | 32.37916 | -84.40982 | 32147 ft | 418 kts | 187° |
| 2026-05-03 22:07 | 32.32099 | -84.40869 | 32139 ft | 418 kts | 187° |
| 2026-05-03 22:07 | 32.26266 | -84.40751 | 32139 ft | 418 kts | 187° |
| 2026-05-03 22:08 | 32.20481 | -84.40631 | 32117 ft | 416 kts | 187° |
| 2026-05-03 22:08 | 32.14698 | -84.40518 | 32133 ft | 416 kts | 187° |
| 2026-05-03 22:09 | 32.08903 | -84.40403 | 32141 ft | 416 kts | 187° |
| 2026-05-03 22:10 | 32.00218 | -84.40230 | 31903 ft | 413 kts | 187° |
| 2026-05-03 22:10 | 31.97330 | -84.40171 | 31590 ft | 415 kts | 187° |
| 2026-05-03 22:10 | 31.94439 | -84.40115 | 31213 ft | 415 kts | 187° |
| 2026-05-03 22:10 | 31.91547 | -84.40058 | 31110 ft | 415 kts | 187° |
| 2026-05-03 22:11 | 31.88686 | -84.40002 | 31108 ft | 416 kts | 187° |
| 2026-05-03 22:11 | 31.82891 | -84.39887 | 31138 ft | 416 kts | 187° |
| 2026-05-03 22:12 | 31.77097 | -84.39774 | 31147 ft | 416 kts | 187° |
| 2026-05-03 22:12 | 31.71294 | -84.39659 | 31147 ft | 416 kts | 187° |
| 2026-05-03 22:13 | 31.65525 | -84.39516 | 31133 ft | 419 kts | 185° |
| 2026-05-03 22:13 | 31.59678 | -84.38300 | 31155 ft | 429 kts | 176° |
| 2026-05-03 22:14 | 31.53844 | -84.36778 | 31143 ft | 429 kts | 177° |
| 2026-05-03 22:14 | 31.48044 | -84.35293 | 31138 ft | 429 kts | 177° |
| 2026-05-03 22:15 | 31.42204 | -84.33816 | 31135 ft | 429 kts | 177° |
| 2026-05-03 22:15 | 31.36369 | -84.32345 | 31116 ft | 429 kts | 177° |
| 2026-05-03 22:16 | 31.31506 | -84.31121 | 31125 ft | 428 kts | 177° |
| 2026-05-03 22:16 | 31.25667 | -84.29659 | 31129 ft | 429 kts | 177° |
| 2026-05-03 22:17 | 31.19863 | -84.28197 | 31126 ft | 429 kts | 177° |
| 2026-05-03 22:17 | 31.14010 | -84.26725 | 31129 ft | 429 kts | 177° |
| 2026-05-03 22:18 | 31.08151 | -84.25261 | 31115 ft | 430 kts | 177° |
| 2026-05-03 22:18 | 31.02321 | -84.23801 | 31130 ft | 430 kts | 177° |
| 2026-05-03 22:19 | 30.96465 | -84.22336 | 31139 ft | 429 kts | 177° |
| 2026-05-03 22:19 | 30.90603 | -84.20874 | 31150 ft | 441 kts | 177° |
| 2026-05-03 22:20 | 30.84457 | -84.19347 | 31155 ft | 458 kts | 177° |
| 2026-05-03 22:20 | 30.78189 | -84.17779 | 31126 ft | 461 kts | 177° |
| 2026-05-03 22:21 | 30.71957 | -84.16224 | 31148 ft | 461 kts | 177° |
| 2026-05-03 22:21 | 30.65679 | -84.14659 | 31144 ft | 461 kts | 177° |
| 2026-05-03 22:22 | 30.59406 | -84.13101 | 31138 ft | 460 kts | 177° |
| 2026-05-03 22:22 | 30.53170 | -84.11555 | 31125 ft | 460 kts | 177° |
| 2026-05-03 22:23 | 30.46888 | -84.10001 | 31135 ft | 460 kts | 177° |
| 2026-05-03 22:23 | 30.40652 | -84.08456 | 31122 ft | 460 kts | 177° |
| 2026-05-03 22:24 | 30.34521 | -84.05867 | 31132 ft | 483 kts | 160° |
| 2026-05-03 22:24 | 30.28692 | -84.01930 | 31132 ft | 485 kts | 159° |
| 2026-05-03 22:25 | 30.22854 | -83.98010 | 31102 ft | 484 kts | 159° |
| 2026-05-03 22:25 | 30.16991 | -83.94129 | 31117 ft | 484 kts | 159° |
| 2026-05-03 22:26 | 30.11143 | -83.90258 | 31107 ft | 484 kts | 160° |
| 2026-05-03 22:26 | 30.05347 | -83.86428 | 31115 ft | 483 kts | 160° |
| 2026-05-03 22:27 | 29.99495 | -83.82573 | 31115 ft | 483 kts | 160° |
| 2026-05-03 22:27 | 29.93692 | -83.78751 | 31092 ft | 483 kts | 160° |
| 2026-05-03 22:28 | 29.87857 | -83.74914 | 31108 ft | 482 kts | 160° |
| 2026-05-03 22:28 | 29.82016 | -83.71072 | 31109 ft | 482 kts | 160° |
| 2026-05-03 22:29 | 29.76182 | -83.67241 | 31105 ft | 482 kts | 160° |
| 2026-05-03 22:29 | 29.70337 | -83.63414 | 31106 ft | 482 kts | 160° |
| 2026-05-03 22:30 | 29.64533 | -83.59617 | 31076 ft | 483 kts | 160° |
| 2026-05-03 22:30 | 29.58664 | -83.55778 | 31097 ft | 483 kts | 160° |
| 2026-05-03 22:31 | 29.52853 | -83.51989 | 31103 ft | 483 kts | 160° |
| 2026-05-03 22:31 | 29.46997 | -83.48168 | 31111 ft | 483 kts | 160° |
| 2026-05-03 22:32 | 29.41148 | -83.44369 | 31099 ft | 483 kts | 160° |
| 2026-05-03 22:32 | 29.35297 | -83.40566 | 31072 ft | 484 kts | 160° |
| 2026-05-03 22:33 | 29.29471 | -83.36781 | 31097 ft | 484 kts | 160° |
| 2026-05-03 22:33 | 29.23538 | -83.33201 | 31101 ft | 476 kts | 166° |
| 2026-05-03 22:34 | 29.17486 | -83.30136 | 31093 ft | 475 kts | 166° |
| 2026-05-03 22:34 | 29.11424 | -83.27065 | 31091 ft | 475 kts | 166° |
| 2026-05-03 22:35 | 29.05375 | -83.23997 | 31063 ft | 476 kts | 166° |
| 2026-05-03 22:35 | 28.99335 | -83.20944 | 31085 ft | 476 kts | 166° |
| 2026-05-03 22:36 | 28.93261 | -83.17874 | 31090 ft | 476 kts | 166° |
| 2026-05-03 22:36 | 28.87196 | -83.14812 | 31075 ft | 475 kts | 166° |
| 2026-05-03 22:37 | 28.81145 | -83.11762 | 31084 ft | 475 kts | 166° |
| 2026-05-03 22:37 | 28.75127 | -83.08733 | 31062 ft | 476 kts | 166° |
| 2026-05-03 22:38 | 28.69057 | -83.05680 | 31070 ft | 476 kts | 166° |
| 2026-05-03 22:38 | 28.63024 | -83.02654 | 31070 ft | 476 kts | 166° |
| 2026-05-03 22:39 | 28.56951 | -82.99607 | 31080 ft | 476 kts | 166° |
| 2026-05-03 22:39 | 28.50884 | -82.96567 | 31086 ft | 476 kts | 166° |
| 2026-05-03 22:40 | 28.44799 | -82.93525 | 31055 ft | 478 kts | 166° |
| 2026-05-03 22:40 | 28.38749 | -82.90501 | 31085 ft | 478 kts | 166° |
| 2026-05-03 22:41 | 28.32651 | -82.87456 | 31079 ft | 478 kts | 166° |
| 2026-05-03 22:41 | 28.26548 | -82.84417 | 31083 ft | 478 kts | 166° |
| 2026-05-03 22:42 | 28.20478 | -82.81395 | 31102 ft | 478 kts | 166° |
| 2026-05-03 22:42 | 28.14358 | -82.78356 | 31093 ft | 481 kts | 166° |
| 2026-05-03 22:43 | 28.08235 | -82.75312 | 31077 ft | 478 kts | 166° |
| 2026-05-03 22:43 | 28.02154 | -82.72327 | 31084 ft | 475 kts | 168° |
| 2026-05-03 22:43 | 27.99025 | -82.71310 | 31081 ft | 462 kts | 178° |
| 2026-05-03 22:44 | 27.95874 | -82.70665 | 31079 ft | 459 kts | 179° |
| 2026-05-03 22:44 | 27.89586 | -82.69475 | 31074 ft | 459 kts | 179° |
| 2026-05-03 22:45 | 27.83271 | -82.68239 | 31069 ft | 462 kts | 180° |
| 2026-05-03 22:45 | 27.76919 | -82.66987 | 31076 ft | 463 kts | 180° |
| 2026-05-03 22:46 | 27.70570 | -82.65738 | 31052 ft | 463 kts | 180° |
| 2026-05-03 22:46 | 27.64221 | -82.64488 | 31048 ft | 463 kts | 180° |
| 2026-05-03 22:47 | 27.57894 | -82.63243 | 31060 ft | 463 kts | 180° |
| 2026-05-03 22:47 | 27.51536 | -82.61850 | 31068 ft | 469 kts | 175° |
| 2026-05-03 22:48 | 27.45206 | -82.59991 | 31063 ft | 470 kts | 175° |
| 2026-05-03 22:48 | 27.38872 | -82.58123 | 31069 ft | 470 kts | 175° |
| 2026-05-03 22:49 | 27.32575 | -82.56271 | 31074 ft | 469 kts | 175° |
| 2026-05-03 22:49 | 27.26244 | -82.54421 | 31021 ft | 470 kts | 175° |
| 2026-05-03 22:50 | 27.19894 | -82.52562 | 31048 ft | 472 kts | 175° |
| 2026-05-03 22:50 | 27.13523 | -82.50699 | 31054 ft | 472 kts | 175° |
| 2026-05-03 22:51 | 27.07206 | -82.48852 | 31047 ft | 472 kts | 175° |
| 2026-05-03 22:51 | 27.00837 | -82.46992 | 30913 ft | 471 kts | 175° |
| 2026-05-03 22:51 | 26.97661 | -82.46067 | 30555 ft | 472 kts | 175° |
| 2026-05-03 22:52 | 26.94469 | -82.45124 | 30255 ft | 478 kts | 173° |
| 2026-05-03 22:52 | 26.91320 | -82.43712 | 29983 ft | 497 kts | 160° |
| 2026-05-03 22:52 | 26.88432 | -82.41478 | 29712 ft | 513 kts | 148° |
| 2026-05-03 22:52 | 26.85749 | -82.38879 | 29427 ft | 515 kts | 146° |
| 2026-05-03 22:53 | 26.83067 | -82.36233 | 29160 ft | 513 kts | 146° |
| 2026-05-03 22:53 | 26.80376 | -82.33608 | 28894 ft | 513 kts | 147° |
| 2026-05-03 22:53 | 26.77660 | -82.30988 | 28626 ft | 513 kts | 147° |
| 2026-05-03 22:53 | 26.74943 | -82.28384 | 28370 ft | 513 kts | 147° |
| 2026-05-03 22:54 | 26.72262 | -82.25820 | 28112 ft | 510 kts | 147° |
| 2026-05-03 22:54 | 26.69606 | -82.23272 | 27846 ft | 491 kts | 147° |
| 2026-05-03 22:54 | 26.67053 | -82.20825 | 27575 ft | 474 kts | 147° |
| 2026-05-03 22:54 | 26.64588 | -82.18467 | 27263 ft | 459 kts | 148° |
| 2026-05-03 22:55 | 26.62175 | -82.16171 | 27004 ft | 460 kts | 148° |
| 2026-05-03 22:55 | 26.59691 | -82.13818 | 26767 ft | 473 kts | 147° |
| 2026-05-03 22:55 | 26.57185 | -82.11430 | 26527 ft | 472 kts | 147° |
| 2026-05-03 22:55 | 26.54691 | -82.09048 | 26283 ft | 470 kts | 147° |
| 2026-05-03 22:56 | 26.52253 | -82.06680 | 26044 ft | 470 kts | 146° |
| 2026-05-03 22:56 | 26.49823 | -82.04232 | 25809 ft | 468 kts | 145° |
| 2026-05-03 22:56 | 26.47405 | -82.01794 | 25578 ft | 466 kts | 145° |
| 2026-05-03 22:56 | 26.44992 | -81.99366 | 25505 ft | 465 kts | 145° |
| 2026-05-03 22:57 | 26.42587 | -81.96949 | 25508 ft | 465 kts | 146° |
| 2026-05-03 22:57 | 26.40179 | -81.94528 | 25523 ft | 466 kts | 145° |
| 2026-05-03 22:57 | 26.37800 | -81.92136 | 25540 ft | 466 kts | 145° |
| 2026-05-03 22:57 | 26.35383 | -81.89705 | 25548 ft | 466 kts | 145° |
| 2026-05-03 22:58 | 26.32974 | -81.87285 | 25503 ft | 465 kts | 145° |
| 2026-05-03 22:58 | 26.30576 | -81.84876 | 25511 ft | 464 kts | 145° |
| 2026-05-03 22:58 | 26.28173 | -81.82461 | 25517 ft | 464 kts | 145° |
| 2026-05-03 22:58 | 26.25804 | -81.80082 | 25520 ft | 464 kts | 145° |
| 2026-05-03 22:59 | 26.23564 | -81.77458 | 25491 ft | 473 kts | 133° |
| 2026-05-03 22:59 | 26.22012 | -81.74491 | 25310 ft | 469 kts | 121° |
| 2026-05-03 22:59 | 26.21193 | -81.72505 | 25119 ft | 461 kts | 120° |
| 2026-05-03 22:59 | 26.19865 | -81.69261 | 24472 ft | 457 kts | 120° |
| 2026-05-03 23:00 | 26.18522 | -81.66077 | 23872 ft | 451 kts | 121° |
| 2026-05-03 23:00 | 26.17173 | -81.62936 | 23204 ft | 444 kts | 121° |
| 2026-05-03 23:00 | 26.15835 | -81.59852 | 22443 ft | 440 kts | 121° |
| 2026-05-03 23:00 | 26.14512 | -81.56818 | 21730 ft | 434 kts | 121° |
| 2026-05-03 23:01 | 26.13200 | -81.53811 | 21062 ft | 428 kts | 121° |
| 2026-05-03 23:01 | 26.11899 | -81.50834 | 20341 ft | 423 kts | 121° |
| 2026-05-03 23:01 | 26.10629 | -81.47929 | 19670 ft | 418 kts | 121° |
| 2026-05-03 23:01 | 26.09365 | -81.45035 | 18943 ft | 414 kts | 121° |
| 2026-05-03 23:02 | 26.08113 | -81.42174 | 18281 ft | 408 kts | 121° |
| 2026-05-03 23:02 | 26.06888 | -81.39374 | 17625 ft | 404 kts | 120° |
| 2026-05-03 23:02 | 26.05668 | -81.36580 | 17089 ft | 398 kts | 120° |
| 2026-05-03 23:02 | 26.04468 | -81.33820 | 16531 ft | 394 kts | 120° |
| 2026-05-03 23:03 | 26.03281 | -81.31094 | 15985 ft | 390 kts | 120° |
| 2026-05-03 23:03 | 26.02108 | -81.28400 | 15634 ft | 385 kts | 120° |
| 2026-05-03 23:03 | 26.00938 | -81.25717 | 15373 ft | 384 kts | 120° |
| 2026-05-03 23:03 | 25.99775 | -81.23054 | 14797 ft | 383 kts | 120° |
| 2026-05-03 23:04 | 25.98609 | -81.20388 | 14197 ft | 382 kts | 119° |
| 2026-05-03 23:04 | 25.97475 | -81.17788 | 13737 ft | 376 kts | 119° |
| 2026-05-03 23:04 | 25.96335 | -81.15180 | 13125 ft | 374 kts | 119° |
| 2026-05-03 23:04 | 25.95201 | -81.12596 | 12612 ft | 370 kts | 119° |
| 2026-05-03 23:05 | 25.94078 | -81.10031 | 12098 ft | 367 kts | 119° |
| 2026-05-03 23:05 | 25.92967 | -81.07493 | 11581 ft | 362 kts | 119° |
| 2026-05-03 23:05 | 25.91877 | -81.05000 | 11204 ft | 354 kts | 119° |
| 2026-05-03 23:05 | 25.90877 | -81.02586 | 10988 ft | 341 kts | 116° |
| 2026-05-03 23:06 | 25.89960 | -81.00204 | 10654 ft | 326 kts | 116° |
| 2026-05-03 23:06 | 25.89091 | -80.97931 | 10171 ft | 317 kts | 116° |
| 2026-05-03 23:06 | 25.88229 | -80.95676 | 9585 ft | 316 kts | 116° |
| 2026-05-03 23:06 | 25.87372 | -80.93440 | 9101 ft | 312 kts | 116° |
| 2026-05-03 23:07 | 25.86530 | -80.91245 | 8751 ft | 306 kts | 116° |
| 2026-05-03 23:07 | 25.85701 | -80.89087 | 8480 ft | 302 kts | 116° |
| 2026-05-03 23:07 | 25.84883 | -80.86958 | 8208 ft | 298 kts | 116° |
| 2026-05-03 23:07 | 25.84072 | -80.84850 | 7948 ft | 295 kts | 116° |
| 2026-05-03 23:08 | 25.83271 | -80.82767 | 7635 ft | 291 kts | 116° |
| 2026-05-03 23:08 | 25.82483 | -80.80720 | 7258 ft | 287 kts | 116° |
| 2026-05-03 23:08 | 25.81706 | -80.78704 | 6867 ft | 284 kts | 116° |
| 2026-05-03 23:08 | 25.80930 | -80.76691 | 6494 ft | 282 kts | 115° |
| 2026-05-03 23:09 | 25.80161 | -80.74695 | 6081 ft | 279 kts | 116° |
| 2026-05-03 23:09 | 25.79399 | -80.72720 | 5660 ft | 277 kts | 115° |
| 2026-05-03 23:09 | 25.78642 | -80.70758 | 5246 ft | 274 kts | 116° |
| 2026-05-03 23:09 | 25.77895 | -80.68823 | 4837 ft | 272 kts | 115° |
| 2026-05-03 23:10 | 25.77224 | -80.66890 | 4412 ft | 273 kts | 105° |
| 2026-05-03 23:10 | 25.77091 | -80.64793 | 4083 ft | 270 kts | 88° |
| 2026-05-03 23:10 | 25.77213 | -80.62769 | 4017 ft | 253 kts | 86° |
| 2026-05-03 23:10 | 25.77334 | -80.60882 | 3997 ft | 233 kts | 86° |
| 2026-05-03 23:11 | 25.77435 | -80.59170 | 4016 ft | 220 kts | 86° |
| 2026-05-03 23:11 | 25.77527 | -80.57478 | 4013 ft | 222 kts | 88° |
| 2026-05-03 23:11 | 25.77622 | -80.55781 | 3973 ft | 218 kts | 86° |
| 2026-05-03 23:11 | 25.77687 | -80.54085 | 3831 ft | 219 kts | 88° |
| 2026-05-03 23:12 | 25.77753 | -80.52466 | 3722 ft | 203 kts | 87° |
| 2026-05-03 23:12 | 25.77817 | -80.50904 | 3517 ft | 203 kts | 87° |
| 2026-05-03 23:12 | 25.77881 | -80.49353 | 3267 ft | 200 kts | 87° |
| 2026-05-03 23:12 | 25.77944 | -80.47816 | 2991 ft | 198 kts | 86° |
| 2026-05-03 23:13 | 25.78006 | -80.46295 | 2710 ft | 195 kts | 87° |
| 2026-05-03 23:13 | 25.78066 | -80.44833 | 2477 ft | 183 kts | 87° |
| 2026-05-03 23:13 | 25.78124 | -80.43427 | 2245 ft | 179 kts | 87° |
| 2026-05-03 23:13 | 25.78180 | -80.42089 | 1994 ft | 173 kts | 86° |
| 2026-05-03 23:14 | 25.78233 | -80.40789 | 1760 ft | 161 kts | 85° |
| 2026-05-03 23:14 | 25.78284 | -80.39560 | 1524 ft | 158 kts | 85° |
| 2026-05-03 23:14 | 25.78331 | -80.38338 | 1261 ft | 158 kts | 85° |
| 2026-05-03 23:14 | 25.78371 | -80.37116 | 1064 ft | 158 kts | 86° |
| 2026-05-03 23:15 | 25.78417 | -80.35903 | 867 ft | 157 kts | 85° |
| 2026-05-03 23:15 | 25.78484 | -80.34716 | 667 ft | 154 kts | 85° |
| 2026-05-03 23:15 | 25.78529 | -80.33533 | 487 ft | 150 kts | 86° |
| 2026-05-03 23:15 | 25.78577 | -80.32390 | 272 ft | 148 kts | 86° |
| 2026-05-03 23:16 | 25.78618 | -80.31238 | 87 ft | 149 kts | 85° |
| 2026-05-03 23:16 | 25.78666 | -80.30098 | 28 ft | 139 kts | 85° |
| 2026-05-03 23:16 | 25.78707 | -80.29176 | 21 ft | 83 kts | 86° |
| 2026-05-03 23:16 | 25.78723 | -80.28835 | 21 ft | 22 kts | 82° |
| 2026-05-03 23:17 | 25.78729 | -80.28673 | 21 ft | 22 kts | 82° |
| 2026-05-03 23:17 | 25.78761 | -80.28516 | 20 ft | 17 kts | 59° |
| 2026-05-03 23:17 | 25.78810 | -80.28445 | 21 ft | 6 kts | 50° |
| 2026-05-03 23:17 | 25.78837 | -80.28410 | 22 ft | 5 kts | 51° |
| 2026-05-03 23:18 | 25.78867 | -80.28368 | 22 ft | 8 kts | 50° |
| 2026-05-03 23:18 | 25.78913 | -80.28307 | 21 ft | 12 kts | 51° |
| 2026-05-03 23:18 | 25.78973 | -80.28225 | 21 ft | 14 kts | 51° |
| 2026-05-03 23:18 | 25.79020 | -80.28132 | 21 ft | 11 kts | 84° |
| 2026-05-03 23:19 | 25.79002 | -80.28054 | 21 ft | 12 kts | 119° |
| 2026-05-03 23:19 | 25.78957 | -80.27967 | 21 ft | 13 kts | 120° |
| 2026-05-03 23:19 | 25.78939 | -80.27878 | 21 ft | 13 kts | 78° |
| 2026-05-03 23:19 | 25.78973 | -80.27835 | 21 ft | 4 kts | 25° |
| 2026-05-03 23:20 | 25.78978 | -80.27833 | 21 ft | 0 kts | 25° |
| 2026-05-03 23:20 | 25.78980 | -80.27832 | 21 ft | 1 kts | 25° |
| 2026-05-03 23:21 | 25.78998 | -80.27823 | 21 ft | 4 kts | 23° |
| 2026-05-03 23:21 | 25.79034 | -80.27806 | 21 ft | 7 kts | 22° |
| 2026-05-03 23:21 | 25.79088 | -80.27782 | 21 ft | 9 kts | 17° |
| 2026-05-03 23:21 | 25.79134 | -80.27774 | 21 ft | 8 kts | 3° |
| 2026-05-03 23:22 | 25.79182 | -80.27742 | 21 ft | 4 kts | 89° |
| 2026-05-03 23:22 | 25.79178 | -80.27713 | 21 ft | 1 kts | 104° |